sensor_id;sensor_type;location;lat;lon;timestamp;P1;durP1;ratioP1;P2;durP2;ratioP2
17253;SDS011;32542;52.832;13.816;2022-10-16T00:00:28;7.05;;;5.13;;
17253;SDS011;32542;52.832;13.816;2022-10-16T00:03:31;6.53;;;5.22;;
17253;SDS011;32542;52.832;13.816;2022-10-16T00:06:35;6.75;;;5.25;;
17253;SDS011;32542;52.832;13.816;2022-10-16T00:09:38;6.20;;;5.47;;
17253;SDS011;32542;52.832;13.816;2022-10-16T00:12:41;5.72;;;4.78;;
17253;SDS011;32542;52.832;13.816;2022-10-16T00:15:44;6.18;;;5.32;;
17253;SDS011;32542;52.832;13.816;2022-10-16T00:18:47;6.70;;;5.38;;
17253;SDS011;32542;52.832;13.816;2022-10-16T00:21:51;6.85;;;5.40;;
17253;SDS011;32542;52.832;13.816;2022-10-16T00:24:54;6.72;;;5.50;;
17253;SDS011;32542;52.832;13.816;2022-10-16T00:27:57;5.82;;;5.13;;
17253;SDS011;32542;52.832;13.816;2022-10-16T00:31:02;6.38;;;4.97;;
17253;SDS011;32542;52.832;13.816;2022-10-16T00:34:06;6.40;;;5.28;;
17253;SDS011;32542;52.832;13.816;2022-10-16T00:37:10;6.15;;;5.20;;
17253;SDS011;32542;52.832;13.816;2022-10-16T00:40:13;6.78;;;5.05;;
17253;SDS011;32542;52.832;13.816;2022-10-16T00:46:41;6.47;;;5.03;;
17253;SDS011;32542;52.832;13.816;2022-10-16T00:49:45;5.55;;;4.80;;
17253;SDS011;32542;52.832;13.816;2022-10-16T00:52:51;6.60;;;5.40;;
17253;SDS011;32542;52.832;13.816;2022-10-16T00:55:55;6.07;;;5.13;;
17253;SDS011;32542;52.832;13.816;2022-10-16T00:58:58;6.03;;;4.82;;
17253;SDS011;32542;52.832;13.816;2022-10-16T01:02:04;6.68;;;4.53;;
17253;SDS011;32542;52.832;13.816;2022-10-16T01:05:08;6.38;;;5.32;;
17253;SDS011;32542;52.832;13.816;2022-10-16T01:08:13;6.25;;;5.35;;
17253;SDS011;32542;52.832;13.816;2022-10-16T01:11:22;5.57;;;4.55;;
17253;SDS011;32542;52.832;13.816;2022-10-16T01:14:32;5.57;;;4.97;;
17253;SDS011;32542;52.832;13.816;2022-10-16T01:17:43;6.82;;;5.43;;
17253;SDS011;32542;52.832;13.816;2022-10-16T01:20:51;5.50;;;4.55;;
17253;SDS011;32542;52.832;13.816;2022-10-16T01:24:05;5.88;;;5.15;;
17253;SDS011;32542;52.832;13.816;2022-10-16T01:27:15;5.85;;;4.70;;
17253;SDS011;32542;52.832;13.816;2022-10-16T01:30:24;5.72;;;4.85;;
17253;SDS011;32542;52.832;13.816;2022-10-16T01:33:30;5.50;;;4.43;;
17253;SDS011;32542;52.832;13.816;2022-10-16T01:36:39;6.35;;;4.78;;
17253;SDS011;32542;52.832;13.816;2022-10-16T01:39:45;5.18;;;4.32;;
17253;SDS011;32542;52.832;13.816;2022-10-16T01:42:55;5.90;;;4.70;;
17253;SDS011;32542;52.832;13.816;2022-10-16T01:46:01;5.95;;;4.75;;
17253;SDS011;32542;52.832;13.816;2022-10-16T01:49:04;5.50;;;4.63;;
17253;SDS011;32542;52.832;13.816;2022-10-16T01:52:09;6.10;;;4.78;;
17253;SDS011;32542;52.832;13.816;2022-10-16T01:55:17;6.00;;;4.93;;
17253;SDS011;32542;52.832;13.816;2022-10-16T01:58:26;5.82;;;4.93;;
17253;SDS011;32542;52.832;13.816;2022-10-16T02:01:33;5.47;;;4.72;;
17253;SDS011;32542;52.832;13.816;2022-10-16T02:04:40;5.43;;;4.18;;
17253;SDS011;32542;52.832;13.816;2022-10-16T02:07:46;4.97;;;4.30;;
17253;SDS011;32542;52.832;13.816;2022-10-16T02:10:49;5.68;;;4.75;;
17253;SDS011;32542;52.832;13.816;2022-10-16T02:13:55;5.32;;;4.50;;
17253;SDS011;32542;52.832;13.816;2022-10-16T02:17:01;5.35;;;4.43;;
17253;SDS011;32542;52.832;13.816;2022-10-16T02:20:04;5.55;;;4.55;;
17253;SDS011;32542;52.832;13.816;2022-10-16T02:23:08;5.22;;;4.35;;
17253;SDS011;32542;52.832;13.816;2022-10-16T02:26:22;5.63;;;4.72;;
17253;SDS011;32542;52.832;13.816;2022-10-16T02:29:32;5.47;;;4.22;;
17253;SDS011;32542;52.832;13.816;2022-10-16T02:32:39;5.32;;;4.40;;
17253;SDS011;32542;52.832;13.816;2022-10-16T02:35:44;5.93;;;4.63;;
17253;SDS011;32542;52.832;13.816;2022-10-16T02:38:49;5.68;;;4.60;;
17253;SDS011;32542;52.832;13.816;2022-10-16T02:41:53;5.60;;;4.65;;
17253;SDS011;32542;52.832;13.816;2022-10-16T02:44:57;5.15;;;4.20;;
17253;SDS011;32542;52.832;13.816;2022-10-16T02:48:00;5.40;;;4.45;;
17253;SDS011;32542;52.832;13.816;2022-10-16T02:51:03;4.65;;;4.15;;
17253;SDS011;32542;52.832;13.816;2022-10-16T02:54:06;5.40;;;4.25;;
17253;SDS011;32542;52.832;13.816;2022-10-16T02:57:09;4.40;;;3.95;;
17253;SDS011;32542;52.832;13.816;2022-10-16T03:00:15;5.13;;;4.30;;
17253;SDS011;32542;52.832;13.816;2022-10-16T03:03:19;5.32;;;4.40;;
17253;SDS011;32542;52.832;13.816;2022-10-16T03:06:21;5.00;;;4.18;;
17253;SDS011;32542;52.832;13.816;2022-10-16T03:09:25;5.25;;;4.30;;
17253;SDS011;32542;52.832;13.816;2022-10-16T03:12:28;4.75;;;4.03;;
17253;SDS011;32542;52.832;13.816;2022-10-16T03:15:33;5.22;;;4.50;;
17253;SDS011;32542;52.832;13.816;2022-10-16T03:18:35;5.15;;;4.35;;
17253;SDS011;32542;52.832;13.816;2022-10-16T03:21:38;4.57;;;4.07;;
17253;SDS011;32542;52.832;13.816;2022-10-16T03:24:41;5.90;;;4.38;;
17253;SDS011;32542;52.832;13.816;2022-10-16T03:27:44;4.82;;;4.07;;
17253;SDS011;32542;52.832;13.816;2022-10-16T03:30:48;5.32;;;4.30;;
17253;SDS011;32542;52.832;13.816;2022-10-16T03:33:51;4.75;;;4.20;;
17253;SDS011;32542;52.832;13.816;2022-10-16T03:36:54;4.10;;;3.70;;
17253;SDS011;32542;52.832;13.816;2022-10-16T03:39:57;4.95;;;3.90;;
17253;SDS011;32542;52.832;13.816;2022-10-16T03:43:00;4.70;;;3.97;;
17253;SDS011;32542;52.832;13.816;2022-10-16T03:46:04;5.00;;;4.15;;
17253;SDS011;32542;52.832;13.816;2022-10-16T03:49:07;4.85;;;4.22;;
17253;SDS011;32542;52.832;13.816;2022-10-16T03:52:10;4.63;;;4.03;;
17253;SDS011;32542;52.832;13.816;2022-10-16T03:55:13;4.80;;;4.30;;
17253;SDS011;32542;52.832;13.816;2022-10-16T03:58:16;4.50;;;4.10;;
17253;SDS011;32542;52.832;13.816;2022-10-16T04:01:22;4.38;;;3.88;;
17253;SDS011;32542;52.832;13.816;2022-10-16T04:04:25;4.53;;;3.80;;
17253;SDS011;32542;52.832;13.816;2022-10-16T04:07:28;4.30;;;3.85;;
17253;SDS011;32542;52.832;13.816;2022-10-16T04:10:31;5.78;;;4.47;;
17253;SDS011;32542;52.832;13.816;2022-10-16T04:13:34;4.35;;;3.63;;
17253;SDS011;32542;52.832;13.816;2022-10-16T04:16:38;4.20;;;3.53;;
17253;SDS011;32542;52.832;13.816;2022-10-16T04:19:41;4.47;;;3.72;;
17253;SDS011;32542;52.832;13.816;2022-10-16T04:22:44;4.78;;;3.97;;
17253;SDS011;32542;52.832;13.816;2022-10-16T04:25:47;4.00;;;3.50;;
17253;SDS011;32542;52.832;13.816;2022-10-16T04:28:50;5.22;;;3.90;;
17253;SDS011;32542;52.832;13.816;2022-10-16T04:31:54;5.57;;;4.20;;
17253;SDS011;32542;52.832;13.816;2022-10-16T04:34:57;4.30;;;3.88;;
17253;SDS011;32542;52.832;13.816;2022-10-16T04:38:00;4.50;;;3.88;;
17253;SDS011;32542;52.832;13.816;2022-10-16T04:41:02;4.15;;;3.63;;
17253;SDS011;32542;52.832;13.816;2022-10-16T04:44:05;4.15;;;3.55;;
17253;SDS011;32542;52.832;13.816;2022-10-16T04:47:10;5.20;;;4.05;;
17253;SDS011;32542;52.832;13.816;2022-10-16T04:50:12;5.03;;;4.10;;
17253;SDS011;32542;52.832;13.816;2022-10-16T04:53:34;4.80;;;3.80;;
17253;SDS011;32542;52.832;13.816;2022-10-16T04:56:37;4.28;;;3.65;;
17253;SDS011;32542;52.832;13.816;2022-10-16T04:59:47;4.18;;;3.75;;
17253;SDS011;32542;52.832;13.816;2022-10-16T05:02:52;4.70;;;3.95;;
17253;SDS011;32542;52.832;13.816;2022-10-16T05:05:55;4.00;;;3.58;;
17253;SDS011;32542;52.832;13.816;2022-10-16T05:08:58;5.60;;;4.00;;
17253;SDS011;32542;52.832;13.816;2022-10-16T05:12:01;4.32;;;3.45;;
17253;SDS011;32542;52.832;13.816;2022-10-16T05:15:05;4.60;;;3.70;;
17253;SDS011;32542;52.832;13.816;2022-10-16T05:18:10;3.60;;;3.30;;
17253;SDS011;32542;52.832;13.816;2022-10-16T05:21:13;4.10;;;3.67;;
17253;SDS011;32542;52.832;13.816;2022-10-16T05:24:16;3.95;;;3.42;;
17253;SDS011;32542;52.832;13.816;2022-10-16T05:27:18;4.53;;;3.75;;
17253;SDS011;32542;52.832;13.816;2022-10-16T05:30:21;4.45;;;3.40;;
17253;SDS011;32542;52.832;13.816;2022-10-16T05:33:25;3.97;;;3.40;;
17253;SDS011;32542;52.832;13.816;2022-10-16T05:36:28;4.43;;;3.55;;
17253;SDS011;32542;52.832;13.816;2022-10-16T05:39:31;4.05;;;3.65;;
17253;SDS011;32542;52.832;13.816;2022-10-16T05:42:34;4.13;;;3.35;;
17253;SDS011;32542;52.832;13.816;2022-10-16T05:45:37;3.65;;;3.25;;
17253;SDS011;32542;52.832;13.816;2022-10-16T05:48:41;4.20;;;3.53;;
17253;SDS011;32542;52.832;13.816;2022-10-16T05:51:44;4.60;;;3.75;;
17253;SDS011;32542;52.832;13.816;2022-10-16T05:54:47;3.95;;;3.60;;
17253;SDS011;32542;52.832;13.816;2022-10-16T05:57:53;4.15;;;3.42;;
17253;SDS011;32542;52.832;13.816;2022-10-16T06:00:57;3.85;;;3.45;;
17253;SDS011;32542;52.832;13.816;2022-10-16T06:04:03;4.47;;;3.53;;
17253;SDS011;32542;52.832;13.816;2022-10-16T06:07:06;3.95;;;3.40;;
17253;SDS011;32542;52.832;13.816;2022-10-16T06:10:09;4.25;;;3.50;;
17253;SDS011;32542;52.832;13.816;2022-10-16T06:13:12;4.05;;;3.30;;
17253;SDS011;32542;52.832;13.816;2022-10-16T06:16:15;4.65;;;3.90;;
17253;SDS011;32542;52.832;13.816;2022-10-16T06:19:19;4.20;;;3.70;;
17253;SDS011;32542;52.832;13.816;2022-10-16T06:22:22;4.43;;;3.58;;
17253;SDS011;32542;52.832;13.816;2022-10-16T06:25:25;4.68;;;3.58;;
17253;SDS011;32542;52.832;13.816;2022-10-16T06:28:28;6.38;;;4.53;;
17253;SDS011;32542;52.832;13.816;2022-10-16T06:31:31;4.53;;;3.83;;
17253;SDS011;32542;52.832;13.816;2022-10-16T06:34:36;4.72;;;4.20;;
17253;SDS011;32542;52.832;13.816;2022-10-16T06:37:44;4.38;;;3.90;;
17253;SDS011;32542;52.832;13.816;2022-10-16T06:40:47;3.70;;;3.40;;
17253;SDS011;32542;52.832;13.816;2022-10-16T06:43:50;4.00;;;3.42;;
17253;SDS011;32542;52.832;13.816;2022-10-16T06:46:53;4.20;;;3.40;;
17253;SDS011;32542;52.832;13.816;2022-10-16T06:49:57;5.28;;;4.07;;
17253;SDS011;32542;52.832;13.816;2022-10-16T06:53:00;5.20;;;4.35;;
17253;SDS011;32542;52.832;13.816;2022-10-16T06:56:06;4.35;;;3.90;;
17253;SDS011;32542;52.832;13.816;2022-10-16T06:59:10;5.65;;;4.55;;
17253;SDS011;32542;52.832;13.816;2022-10-16T07:02:13;5.43;;;4.55;;
17253;SDS011;32542;52.832;13.816;2022-10-16T07:05:17;4.88;;;4.32;;
17253;SDS011;32542;52.832;13.816;2022-10-16T07:08:20;5.50;;;4.05;;
17253;SDS011;32542;52.832;13.816;2022-10-16T07:11:23;4.22;;;3.83;;
17253;SDS011;32542;52.832;13.816;2022-10-16T07:14:26;5.13;;;4.53;;
17253;SDS011;32542;52.832;13.816;2022-10-16T07:17:31;5.03;;;4.20;;
17253;SDS011;32542;52.832;13.816;2022-10-16T07:20:36;5.18;;;4.32;;
17253;SDS011;32542;52.832;13.816;2022-10-16T07:23:39;5.03;;;3.90;;
17253;SDS011;32542;52.832;13.816;2022-10-16T07:26:43;5.32;;;4.07;;
17253;SDS011;32542;52.832;13.816;2022-10-16T07:29:47;4.70;;;4.15;;
17253;SDS011;32542;52.832;13.816;2022-10-16T07:32:50;4.70;;;4.20;;
17253;SDS011;32542;52.832;13.816;2022-10-16T07:35:54;5.95;;;4.55;;
17253;SDS011;32542;52.832;13.816;2022-10-16T07:38:57;4.78;;;3.97;;
17253;SDS011;32542;52.832;13.816;2022-10-16T07:42:00;5.07;;;4.22;;
17253;SDS011;32542;52.832;13.816;2022-10-16T07:45:04;4.55;;;4.05;;
17253;SDS011;32542;52.832;13.816;2022-10-16T07:48:07;4.07;;;3.67;;
17253;SDS011;32542;52.832;13.816;2022-10-16T07:51:12;4.88;;;4.00;;
17253;SDS011;32542;52.832;13.816;2022-10-16T07:54:16;5.57;;;4.03;;
17253;SDS011;32542;52.832;13.816;2022-10-16T07:57:19;4.80;;;3.70;;
17253;SDS011;32542;52.832;13.816;2022-10-16T08:00:21;4.65;;;3.60;;
17253;SDS011;32542;52.832;13.816;2022-10-16T08:03:24;5.05;;;4.20;;
17253;SDS011;32542;52.832;13.816;2022-10-16T08:06:29;5.10;;;3.88;;
17253;SDS011;32542;52.832;13.816;2022-10-16T08:09:38;4.35;;;3.80;;
17253;SDS011;32542;52.832;13.816;2022-10-16T08:12:40;4.85;;;4.03;;
17253;SDS011;32542;52.832;13.816;2022-10-16T08:15:43;4.55;;;3.83;;
17253;SDS011;32542;52.832;13.816;2022-10-16T08:18:47;4.47;;;3.65;;
17253;SDS011;32542;52.832;13.816;2022-10-16T08:21:51;5.40;;;4.13;;
17253;SDS011;32542;52.832;13.816;2022-10-16T08:24:54;4.72;;;3.95;;
17253;SDS011;32542;52.832;13.816;2022-10-16T08:27:56;5.20;;;4.47;;
17253;SDS011;32542;52.832;13.816;2022-10-16T08:31:08;4.88;;;4.00;;
17253;SDS011;32542;52.832;13.816;2022-10-16T08:34:13;5.18;;;4.10;;
17253;SDS011;32542;52.832;13.816;2022-10-16T08:37:17;3.90;;;3.50;;
17253;SDS011;32542;52.832;13.816;2022-10-16T08:40:20;4.70;;;4.05;;
17253;SDS011;32542;52.832;13.816;2022-10-16T08:43:36;5.63;;;3.88;;
17253;SDS011;32542;52.832;13.816;2022-10-16T08:46:51;4.35;;;3.60;;
17253;SDS011;32542;52.832;13.816;2022-10-16T08:50:08;4.65;;;3.78;;
17253;SDS011;32542;52.832;13.816;2022-10-16T08:53:15;4.50;;;3.72;;
17253;SDS011;32542;52.832;13.816;2022-10-16T08:56:22;4.13;;;3.70;;
17253;SDS011;32542;52.832;13.816;2022-10-16T08:59:25;4.20;;;3.70;;
17253;SDS011;32542;52.832;13.816;2022-10-16T09:02:30;4.32;;;3.67;;
17253;SDS011;32542;52.832;13.816;2022-10-16T09:12:40;3.90;;;3.38;;
17253;SDS011;32542;52.832;13.816;2022-10-16T09:15:53;4.05;;;3.38;;
17253;SDS011;32542;52.832;13.816;2022-10-16T09:19:03;4.05;;;3.50;;
17253;SDS011;32542;52.832;13.816;2022-10-16T09:22:12;4.30;;;3.58;;
17253;SDS011;32542;52.832;13.816;2022-10-16T09:25:20;4.20;;;3.72;;
17253;SDS011;32542;52.832;13.816;2022-10-16T09:28:24;5.03;;;3.67;;
17253;SDS011;32542;52.832;13.816;2022-10-16T09:31:27;4.20;;;3.30;;
17253;SDS011;32542;52.832;13.816;2022-10-16T09:34:30;4.57;;;3.30;;
17253;SDS011;32542;52.832;13.816;2022-10-16T09:37:35;3.92;;;3.33;;
17253;SDS011;32542;52.832;13.816;2022-10-16T09:40:40;4.60;;;3.72;;
17253;SDS011;32542;52.832;13.816;2022-10-16T09:43:48;4.43;;;3.67;;
17253;SDS011;32542;52.832;13.816;2022-10-16T09:47:01;3.90;;;3.40;;
17253;SDS011;32542;52.832;13.816;2022-10-16T09:50:13;3.55;;;3.15;;
17253;SDS011;32542;52.832;13.816;2022-10-16T09:53:24;4.10;;;3.47;;
17253;SDS011;32542;52.832;13.816;2022-10-16T09:56:40;3.95;;;3.55;;
17253;SDS011;32542;52.832;13.816;2022-10-16T09:59:47;3.90;;;3.50;;
17253;SDS011;32542;52.832;13.816;2022-10-16T10:02:51;3.95;;;3.55;;
17253;SDS011;32542;52.832;13.816;2022-10-16T10:06:01;4.10;;;3.50;;
17253;SDS011;32542;52.832;13.816;2022-10-16T10:09:16;3.92;;;3.40;;
17253;SDS011;32542;52.832;13.816;2022-10-16T10:12:23;4.25;;;3.72;;
17253;SDS011;32542;52.832;13.816;2022-10-16T10:15:32;5.00;;;3.38;;
17253;SDS011;32542;52.832;13.816;2022-10-16T10:18:38;3.80;;;3.40;;
17253;SDS011;32542;52.832;13.816;2022-10-16T10:21:41;5.28;;;3.28;;
17253;SDS011;32542;52.832;13.816;2022-10-16T10:24:44;3.50;;;3.15;;
17253;SDS011;32542;52.832;13.816;2022-10-16T10:27:59;4.82;;;3.30;;
17253;SDS011;32542;52.832;13.816;2022-10-16T10:31:29;3.38;;;3.00;;
17253;SDS011;32542;52.832;13.816;2022-10-16T10:34:44;4.55;;;3.40;;
17253;SDS011;32542;52.832;13.816;2022-10-16T10:38:00;3.67;;;3.20;;
17253;SDS011;32542;52.832;13.816;2022-10-16T10:41:26;3.67;;;2.72;;
17253;SDS011;32542;52.832;13.816;2022-10-16T10:44:52;3.80;;;3.22;;
17253;SDS011;32542;52.832;13.816;2022-10-16T10:48:13;4.55;;;3.50;;
17253;SDS011;32542;52.832;13.816;2022-10-16T10:51:25;3.97;;;3.47;;
17253;SDS011;32542;52.832;13.816;2022-10-16T10:54:36;3.60;;;3.17;;
17253;SDS011;32542;52.832;13.816;2022-10-16T10:57:49;3.90;;;3.33;;
17253;SDS011;32542;52.832;13.816;2022-10-16T11:01:07;3.70;;;3.20;;
17253;SDS011;32542;52.832;13.816;2022-10-16T11:04:22;4.20;;;3.40;;
17253;SDS011;32542;52.832;13.816;2022-10-16T11:07:37;3.75;;;3.30;;
17253;SDS011;32542;52.832;13.816;2022-10-16T11:10:46;3.33;;;2.95;;
17253;SDS011;32542;52.832;13.816;2022-10-16T11:13:55;3.53;;;3.22;;
17253;SDS011;32542;52.832;13.816;2022-10-16T11:17:05;3.75;;;3.35;;
17253;SDS011;32542;52.832;13.816;2022-10-16T11:20:13;3.60;;;3.17;;
17253;SDS011;32542;52.832;13.816;2022-10-16T11:23:21;3.53;;;3.22;;
17253;SDS011;32542;52.832;13.816;2022-10-16T11:26:30;3.97;;;3.25;;
17253;SDS011;32542;52.832;13.816;2022-10-16T11:29:41;3.58;;;3.22;;
17253;SDS011;32542;52.832;13.816;2022-10-16T11:32:54;3.28;;;2.90;;
17253;SDS011;32542;52.832;13.816;2022-10-16T11:36:08;3.28;;;2.85;;
17253;SDS011;32542;52.832;13.816;2022-10-16T11:39:19;3.20;;;2.90;;
17253;SDS011;32542;52.832;13.816;2022-10-16T11:42:25;3.97;;;3.17;;
17253;SDS011;32542;52.832;13.816;2022-10-16T11:45:33;3.47;;;3.17;;
17253;SDS011;32542;52.832;13.816;2022-10-16T11:48:45;3.33;;;2.97;;
17253;SDS011;32542;52.832;13.816;2022-10-16T11:51:55;3.65;;;3.13;;
17253;SDS011;32542;52.832;13.816;2022-10-16T11:55:13;3.85;;;3.00;;
17253;SDS011;32542;52.832;13.816;2022-10-16T11:58:22;3.10;;;2.67;;
17253;SDS011;32542;52.832;13.816;2022-10-16T12:01:31;3.17;;;2.83;;
17253;SDS011;32542;52.832;13.816;2022-10-16T12:04:42;4.05;;;3.33;;
17253;SDS011;32542;52.832;13.816;2022-10-16T12:07:50;3.45;;;2.85;;
17253;SDS011;32542;52.832;13.816;2022-10-16T12:11:07;4.20;;;3.30;;
17253;SDS011;32542;52.832;13.816;2022-10-16T12:14:19;3.50;;;2.90;;
17253;SDS011;32542;52.832;13.816;2022-10-16T12:17:25;3.30;;;3.00;;
17253;SDS011;32542;52.832;13.816;2022-10-16T12:20:37;3.30;;;3.00;;
17253;SDS011;32542;52.832;13.816;2022-10-16T12:23:47;3.33;;;2.75;;
17253;SDS011;32542;52.832;13.816;2022-10-16T12:26:52;3.10;;;2.72;;
17253;SDS011;32542;52.832;13.816;2022-10-16T12:29:55;4.05;;;3.08;;
17253;SDS011;32542;52.832;13.816;2022-10-16T12:33:01;3.25;;;2.95;;
17253;SDS011;32542;52.832;13.816;2022-10-16T12:36:13;3.70;;;3.08;;
17253;SDS011;32542;52.832;13.816;2022-10-16T12:39:23;3.53;;;3.05;;
17253;SDS011;32542;52.832;13.816;2022-10-16T12:42:32;3.15;;;2.85;;
17253;SDS011;32542;52.832;13.816;2022-10-16T12:45:35;3.25;;;2.80;;
17253;SDS011;32542;52.832;13.816;2022-10-16T12:48:39;3.33;;;3.03;;
17253;SDS011;32542;52.832;13.816;2022-10-16T12:52:03;3.38;;;2.85;;
17253;SDS011;32542;52.832;13.816;2022-10-16T12:55:12;3.20;;;2.90;;
17253;SDS011;32542;52.832;13.816;2022-10-16T12:58:22;3.40;;;3.10;;
17253;SDS011;32542;52.832;13.816;2022-10-16T13:01:40;3.72;;;3.03;;
17253;SDS011;32542;52.832;13.816;2022-10-16T13:04:54;3.00;;;2.60;;
17253;SDS011;32542;52.832;13.816;2022-10-16T13:08:25;3.20;;;2.90;;
17253;SDS011;32542;52.832;13.816;2022-10-16T13:11:46;3.47;;;2.95;;
17253;SDS011;32542;52.832;13.816;2022-10-16T13:15:06;3.05;;;2.75;;
17253;SDS011;32542;52.832;13.816;2022-10-16T13:18:25;3.25;;;2.95;;
17253;SDS011;32542;52.832;13.816;2022-10-16T13:21:38;3.25;;;2.80;;
17253;SDS011;32542;52.832;13.816;2022-10-16T13:24:55;3.10;;;2.65;;
17253;SDS011;32542;52.832;13.816;2022-10-16T13:28:14;2.70;;;2.42;;
17253;SDS011;32542;52.832;13.816;2022-10-16T13:31:22;3.03;;;2.72;;
17253;SDS011;32542;52.832;13.816;2022-10-16T13:34:27;3.00;;;2.70;;
17253;SDS011;32542;52.832;13.816;2022-10-16T13:37:31;3.10;;;2.60;;
17253;SDS011;32542;52.832;13.816;2022-10-16T13:40:35;3.13;;;2.78;;
17253;SDS011;32542;52.832;13.816;2022-10-16T13:43:39;3.25;;;2.50;;
17253;SDS011;32542;52.832;13.816;2022-10-16T13:46:44;2.80;;;2.50;;
17253;SDS011;32542;52.832;13.816;2022-10-16T13:49:47;3.47;;;2.60;;
17253;SDS011;32542;52.832;13.816;2022-10-16T13:53:04;3.05;;;2.60;;
17253;SDS011;32542;52.832;13.816;2022-10-16T13:56:11;3.40;;;2.88;;
17253;SDS011;32542;52.832;13.816;2022-10-16T13:59:23;2.85;;;2.55;;
17253;SDS011;32542;52.832;13.816;2022-10-16T14:02:29;3.65;;;2.80;;
17253;SDS011;32542;52.832;13.816;2022-10-16T14:05:35;3.15;;;2.85;;
17253;SDS011;32542;52.832;13.816;2022-10-16T14:08:40;3.38;;;2.95;;
17253;SDS011;32542;52.832;13.816;2022-10-16T14:11:48;2.92;;;2.63;;
17253;SDS011;32542;52.832;13.816;2022-10-16T14:14:53;2.92;;;2.42;;
17253;SDS011;32542;52.832;13.816;2022-10-16T14:17:58;3.17;;;2.53;;
17253;SDS011;32542;52.832;13.816;2022-10-16T14:21:04;3.00;;;2.70;;
17253;SDS011;32542;52.832;13.816;2022-10-16T14:24:12;3.08;;;2.45;;
17253;SDS011;32542;52.832;13.816;2022-10-16T14:27:28;2.90;;;2.47;;
17253;SDS011;32542;52.832;13.816;2022-10-16T14:30:33;3.00;;;2.60;;
17253;SDS011;32542;52.832;13.816;2022-10-16T14:33:38;2.70;;;2.50;;
17253;SDS011;32542;52.832;13.816;2022-10-16T14:36:41;3.10;;;2.50;;
17253;SDS011;32542;52.832;13.816;2022-10-16T14:39:48;3.03;;;2.63;;
17253;SDS011;32542;52.832;13.816;2022-10-16T14:42:53;3.10;;;2.50;;
17253;SDS011;32542;52.832;13.816;2022-10-16T14:45:56;3.03;;;2.72;;
17253;SDS011;32542;52.832;13.816;2022-10-16T14:49:01;3.17;;;2.60;;
17253;SDS011;32542;52.832;13.816;2022-10-16T14:52:08;2.40;;;2.20;;
17253;SDS011;32542;52.832;13.816;2022-10-16T14:55:12;2.58;;;2.15;;
17253;SDS011;32542;52.832;13.816;2022-10-16T14:58:17;2.85;;;2.47;;
17253;SDS011;32542;52.832;13.816;2022-10-16T15:01:22;2.88;;;2.58;;
17253;SDS011;32542;52.832;13.816;2022-10-16T15:04:25;3.08;;;2.60;;
17253;SDS011;32542;52.832;13.816;2022-10-16T15:07:28;2.60;;;2.40;;
17253;SDS011;32542;52.832;13.816;2022-10-16T15:10:32;2.65;;;2.42;;
17253;SDS011;32542;52.832;13.816;2022-10-16T15:13:43;2.63;;;2.25;;
17253;SDS011;32542;52.832;13.816;2022-10-16T15:16:46;3.45;;;2.88;;
17253;SDS011;32542;52.832;13.816;2022-10-16T15:19:49;2.53;;;2.20;;
17253;SDS011;32542;52.832;13.816;2022-10-16T15:22:52;2.65;;;2.45;;
17253;SDS011;32542;52.832;13.816;2022-10-16T15:25:55;3.08;;;2.75;;
17253;SDS011;32542;52.832;13.816;2022-10-16T15:29:00;2.65;;;2.28;;
17253;SDS011;32542;52.832;13.816;2022-10-16T15:32:03;2.97;;;2.70;;
17253;SDS011;32542;52.832;13.816;2022-10-16T15:35:07;2.67;;;2.40;;
17253;SDS011;32542;52.832;13.816;2022-10-16T15:38:11;2.42;;;2.20;;
17253;SDS011;32542;52.832;13.816;2022-10-16T15:41:15;2.60;;;2.25;;
17253;SDS011;32542;52.832;13.816;2022-10-16T15:44:19;2.60;;;2.38;;
17253;SDS011;32542;52.832;13.816;2022-10-16T15:47:24;3.58;;;2.90;;
17253;SDS011;32542;52.832;13.816;2022-10-16T15:50:26;3.45;;;2.55;;
17253;SDS011;32542;52.832;13.816;2022-10-16T15:53:29;2.50;;;2.30;;
17253;SDS011;32542;52.832;13.816;2022-10-16T15:56:32;2.53;;;2.30;;
17253;SDS011;32542;52.832;13.816;2022-10-16T15:59:41;2.50;;;2.30;;
17253;SDS011;32542;52.832;13.816;2022-10-16T16:02:48;2.70;;;2.50;;
17253;SDS011;32542;52.832;13.816;2022-10-16T16:05:53;2.67;;;2.40;;
17253;SDS011;32542;52.832;13.816;2022-10-16T16:08:57;2.90;;;2.50;;
17253;SDS011;32542;52.832;13.816;2022-10-16T16:12:02;2.90;;;2.35;;
17253;SDS011;32542;52.832;13.816;2022-10-16T16:15:07;2.90;;;2.40;;
17253;SDS011;32542;52.832;13.816;2022-10-16T16:18:11;2.92;;;2.63;;
17253;SDS011;32542;52.832;13.816;2022-10-16T16:21:13;2.45;;;2.20;;
17253;SDS011;32542;52.832;13.816;2022-10-16T16:24:16;2.72;;;2.42;;
17253;SDS011;32542;52.832;13.816;2022-10-16T16:27:20;2.80;;;2.47;;
17253;SDS011;32542;52.832;13.816;2022-10-16T16:30:28;2.80;;;2.50;;
17253;SDS011;32542;52.832;13.816;2022-10-16T16:33:31;2.58;;;2.25;;
17253;SDS011;32542;52.832;13.816;2022-10-16T16:36:34;2.55;;;2.35;;
17253;SDS011;32542;52.832;13.816;2022-10-16T16:39:37;2.58;;;2.38;;
17253;SDS011;32542;52.832;13.816;2022-10-16T16:42:40;3.17;;;2.72;;
17253;SDS011;32542;52.832;13.816;2022-10-16T16:45:44;2.72;;;2.40;;
17253;SDS011;32542;52.832;13.816;2022-10-16T16:48:47;3.03;;;2.72;;
17253;SDS011;32542;52.832;13.816;2022-10-16T16:51:52;2.85;;;2.60;;
17253;SDS011;32542;52.832;13.816;2022-10-16T16:54:55;2.60;;;2.40;;
17253;SDS011;32542;52.832;13.816;2022-10-16T16:57:58;2.53;;;2.20;;
17253;SDS011;32542;52.832;13.816;2022-10-16T17:01:06;2.72;;;2.25;;
17253;SDS011;32542;52.832;13.816;2022-10-16T17:04:26;4.22;;;2.83;;
17253;SDS011;32542;52.832;13.816;2022-10-16T17:07:30;3.35;;;2.40;;
17253;SDS011;32542;52.832;13.816;2022-10-16T17:10:41;3.20;;;2.50;;
17253;SDS011;32542;52.832;13.816;2022-10-16T17:13:45;12.50;;;3.03;;
17253;SDS011;32542;52.832;13.816;2022-10-16T17:16:57;8.55;;;2.47;;
17253;SDS011;32542;52.832;13.816;2022-10-16T17:19:59;5.43;;;3.03;;
17253;SDS011;32542;52.832;13.816;2022-10-16T17:23:02;8.77;;;2.40;;
17253;SDS011;32542;52.832;13.816;2022-10-16T17:26:05;12.75;;;3.28;;
17253;SDS011;32542;52.832;13.816;2022-10-16T17:29:11;12.43;;;2.67;;
17253;SDS011;32542;52.832;13.816;2022-10-16T17:32:15;9.20;;;2.60;;
17253;SDS011;32542;52.832;13.816;2022-10-16T17:35:18;12.40;;;3.10;;
17253;SDS011;32542;52.832;13.816;2022-10-16T17:38:21;11.38;;;2.70;;
17253;SDS011;32542;52.832;13.816;2022-10-16T17:41:24;8.80;;;3.13;;
17253;SDS011;32542;52.832;13.816;2022-10-16T17:44:27;8.18;;;2.63;;
17253;SDS011;32542;52.832;13.816;2022-10-16T17:47:31;11.73;;;2.35;;
17253;SDS011;32542;52.832;13.816;2022-10-16T17:50:34;4.63;;;2.85;;
17253;SDS011;32542;52.832;13.816;2022-10-16T17:53:41;8.32;;;2.83;;
17253;SDS011;32542;52.832;13.816;2022-10-16T17:56:45;4.93;;;2.58;;
17253;SDS011;32542;52.832;13.816;2022-10-16T17:59:49;4.82;;;2.40;;
17253;SDS011;32542;52.832;13.816;2022-10-16T18:02:53;7.40;;;2.50;;
17253;SDS011;32542;52.832;13.816;2022-10-16T18:05:56;10.60;;;2.95;;
17253;SDS011;32542;52.832;13.816;2022-10-16T18:08:59;7.88;;;3.00;;
17253;SDS011;32542;52.832;13.816;2022-10-16T18:12:02;6.25;;;2.70;;
17253;SDS011;32542;52.832;13.816;2022-10-16T18:15:05;4.38;;;2.70;;
17253;SDS011;32542;52.832;13.816;2022-10-16T18:18:11;6.20;;;2.70;;
17253;SDS011;32542;52.832;13.816;2022-10-16T18:21:15;6.88;;;2.53;;
17253;SDS011;32542;52.832;13.816;2022-10-16T18:24:20;7.03;;;2.42;;
17253;SDS011;32542;52.832;13.816;2022-10-16T18:27:25;8.85;;;2.22;;
17253;SDS011;32542;52.832;13.816;2022-10-16T18:30:28;3.40;;;2.30;;
17253;SDS011;32542;52.832;13.816;2022-10-16T18:33:32;4.82;;;2.60;;